Iguape, Brazil
Current Conditions -  °F | °C
As of 3:00 PM on Thursday 30 Oct 2014 (Local Time) from SBSP Reporting Station
Clear Clear  
Wind Chill: 93°   Ceiling: Unl
Heat Index: 93°   Visibility: 6mi
Dew Point: 50°   Wind: 10mph
Humidity: 23%   Direction: 300°WNW
Pressure: 29.88"   Gusts: NA
Location:  24.72°S, 47.57°W
Report Text: SBSP 301700Z 30009KT CAVOK 34/10 Q1012
Loading
Personal Weather Stations






























Interactive Weather Map
Tropical Storm Tracking
New forecast layout! Learn more

10-Day Weather Forecast

Advertisements
Track Severe Weather on mobile